Time;durP1;ratioP1;P1;durP2;ratioP2;P2;SDS_P1;SDS_P2;PMS_P1;PMS_P2;Temp;Humidity;BMP_temperature;BMP_pressure;BME280_temperature;BME280_humidity;BME280_pressure;Samples;Min_cycle;Max_cycle;Signal;HPM_P1;HPM_P2
2022/11/06 00:01:53;;;;;;;21.08;10.63;;;;;;;7.67;85.09;98566.41;4973128;28;20486;-85
2022/11/06 00:04:18;;;;;;;17.83;9.93;;;;;;;7.69;85.81;98571.47;4989223;28;20391;-85
2022/11/06 00:06:46;;;;;;;16.27;9.45;;;;;;;7.75;85.58;98576.81;4973996;28;20042;-85
2022/11/06 00:09:16;;;;;;;16.98;9.02;;;;;;;7.73;85.44;98570.94;4972443;28;20471;-85
2022/11/06 00:11:42;;;;;;;16.65;9.50;;;;;;;7.69;84.97;98561.03;4973536;28;20085;-85
2022/11/06 00:14:09;;;;;;;16.55;8.82;;;;;;;7.68;84.41;98568.03;4972436;28;20128;-85
2022/11/06 00:16:38;;;;;;;16.25;9.27;;;;;;;7.69;84.30;98569.66;4974256;28;20035;-85
2022/11/06 00:19:05;;;;;;;16.65;8.82;;;;;;;7.61;84.21;98564.47;4973685;28;20483;-86
2022/11/06 00:21:31;;;;;;;19.13;9.80;;;;;;;7.57;84.82;98557.97;4973566;28;20047;-85
2022/11/06 00:24:00;;;;;;;18.73;10.43;;;;;;;7.56;85.04;98572.00;4973114;28;20035;-85
2022/11/06 00:26:29;;;;;;;16.20;9.77;;;;;;;7.58;84.51;98566.63;4972689;28;20046;-85
2022/11/06 00:28:55;;;;;;;16.55;9.85;;;;;;;7.50;84.89;98564.84;4974131;28;20043;-85
2022/11/06 00:31:27;;;;;;;19.40;10.18;;;;;;;7.51;84.82;98554.22;4973716;28;20050;-85
2022/11/06 00:33:57;;;;;;;15.98;9.13;;;;;;;7.46;84.90;98561.75;4954957;28;20146;-86
2022/11/06 00:36:24;;;;;;;15.80;9.55;;;;;;;7.47;84.68;98560.75;4955230;28;20487;-86
2022/11/06 00:38:52;;;;;;;18.27;9.75;;;;;;;7.42;84.84;98562.25;4973900;28;20041;-85
2022/11/06 00:41:18;;;;;;;18.27;9.35;;;;;;;7.29;84.18;98554.13;4972757;28;20039;-86
2022/11/06 00:43:57;;;;;;;16.50;9.25;;;;;;;7.33;84.25;98563.28;4973379;28;20089;-86
2022/11/06 00:46:23;;;;;;;16.17;9.95;;;;;;;7.25;84.33;98554.47;4974571;28;20058;-85
2022/11/06 00:48:49;;;;;;;15.82;8.95;;;;;;;7.21;84.33;98561.00;4971090;28;20034;-86
2022/11/06 00:51:28;;;;;;;15.90;9.63;;;;;;;7.20;84.58;98553.34;4960929;28;20031;-85
2022/11/06 00:53:58;;;;;;;13.80;8.52;;;;;;;7.18;84.70;98563.94;4970453;28;20117;-85
2022/11/06 00:56:24;;;;;;;16.92;9.73;;;;;;;7.12;84.86;98551.56;4968152;28;20121;-86
2022/11/06 00:58:50;;;;;;;16.05;9.13;;;;;;;7.04;84.79;98559.41;4972179;28;20081;-86
2022/11/06 01:01:32;;;;;;;19.60;9.73;;;;;;;7.10;85.32;98555.31;4973009;28;20062;-86
2022/11/06 01:04:02;;;;;;;18.65;9.55;;;;;;;7.04;85.12;98563.81;4973540;28;20098;-85
2022/11/06 01:06:39;;;;;;;17.48;9.52;;;;;;;7.01;86.17;98562.34;4973538;28;20039;-86
2022/11/06 01:09:06;;;;;;;15.07;8.57;;;;;;;7.01;85.76;98564.94;4971547;28;20487;-86
2022/11/06 01:11:36;;;;;;;18.52;9.70;;;;;;;6.96;85.83;98562.84;4966453;28;20085;-86
2022/11/06 01:14:05;;;;;;;20.73;9.93;;;;;;;6.94;85.91;98563.97;4972998;28;20030;-86
2022/11/06 01:16:31;;;;;;;22.88;10.52;;;;;;;6.93;86.21;98565.78;4973714;28;20066;-86
2022/11/06 01:18:57;;;;;;;18.20;9.18;;;;;;;6.91;86.36;98553.91;4971650;28;20073;-86
2022/11/06 01:21:27;;;;;;;17.85;9.38;;;;;;;6.89;86.06;98563.66;4973138;28;20053;-86
2022/11/06 01:23:56;;;;;;;22.60;10.73;;;;;;;6.91;86.36;98565.13;4986791;28;20518;-85
2022/11/06 01:26:23;;;;;;;19.38;10.20;;;;;;;6.87;86.33;98565.63;4973094;28;20047;-86
2022/11/06 01:28:49;;;;;;;16.38;9.45;;;;;;;6.90;86.48;98571.34;4973003;28;20034;-86
2022/11/06 01:31:20;;;;;;;18.85;10.65;;;;;;;6.90;86.55;98573.13;4972764;28;20171;-85
2022/11/06 01:33:46;;;;;;;;;;;;;;;6.94;86.69;98572.63;4977954;28;20045;-86
2022/11/06 01:36:14;;;;;;;22.25;10.98;;;;;;;6.93;86.05;98572.78;4972472;28;20666;-85
2022/11/06 01:38:56;;;;;;;18.15;10.32;;;;;;;6.90;85.95;98570.53;4987598;28;20125;-86
2022/11/06 01:41:34;;;;;;;20.33;10.10;;;;;;;6.82;85.83;98570.50;4972656;28;20043;-86
2022/11/06 01:44:34;;;;;;;20.80;10.63;;;;;;;6.89;86.24;98566.25;4973171;28;20114;-86
2022/11/06 01:47:03;;;;;;;19.08;10.45;;;;;;;6.91;86.14;98564.31;4970217;28;20043;-85
2022/11/06 01:49:37;;;;;;;19.67;11.10;;;;;;;6.92;85.82;98558.13;4973504;28;20038;-85
2022/11/06 01:52:10;;;;;;;18.55;10.63;;;;;;;6.91;85.78;98559.09;4972178;28;20094;-86
2022/11/06 01:54:39;;;;;;;16.67;9.80;;;;;;;6.91;85.63;98559.09;4971605;28;20026;-86
2022/11/06 01:57:06;;;;;;;19.77;10.32;;;;;;;6.81;85.77;98542.81;4972503;28;20047;-86
2022/11/06 01:59:43;;;;;;;20.00;10.10;;;;;;;6.84;85.53;98542.50;4971251;28;20065;-85
2022/11/06 02:02:08;;;;;;;16.60;9.75;;;;;;;6.82;85.43;98547.03;4963945;28;20043;-85
2022/11/06 02:04:44;;;;;;;17.63;9.48;;;;;;;6.81;84.50;98548.03;4972123;28;20060;-86
2022/11/06 02:07:11;;;;;;;14.50;8.80;;;;;;;6.79;83.73;98547.38;4971563;28;20044;-86
2022/11/06 02:09:37;;;;;;;13.98;8.05;;;;;;;6.77;83.53;98546.72;4971832;28;20041;-86
2022/11/06 02:12:48;;;;;;;16.10;8.52;;;;;;;6.71;83.17;98541.19;4971635;28;20041;-87
2022/11/06 02:15:41;;;;;;;14.60;8.38;;;;;;;6.66;83.44;98530.44;4970043;28;20475;-86
2022/11/06 02:18:42;;;;;;;17.38;8.80;;;;;;;6.56;83.22;98537.63;4971299;28;20042;-86
2022/11/06 02:22:14;;;;;;;16.45;9.00;;;;;;;6.41;81.81;98534.00;4960631;28;20050;-86
2022/11/06 02:25:29;;;;;;;14.57;8.40;;;;;;;6.17;82.36;98535.63;4969243;28;20518;-86
2022/11/06 02:28:07;;;;;;;16.52;8.80;;;;;;;6.07;84.89;98542.78;4971331;28;20114;-86
2022/11/06 02:30:42;;;;;;;16.73;9.63;;;;;;;5.98;85.67;98541.13;4971376;28;20051;-86
2022/11/06 02:33:17;;;;;;;19.45;9.45;;;;;;;6.02;87.08;98555.47;4981581;28;20036;-86
2022/11/06 02:35:52;;;;;;;20.27;10.40;;;;;;;6.00;88.36;98549.59;4969254;28;20030;-86
2022/11/06 02:38:41;;;;;;;21.50;10.85;;;;;;;6.03;88.23;98544.06;4971207;28;20503;-86
2022/11/06 02:41:17;;;;;;;22.23;11.07;;;;;;;6.03;88.13;98530.22;4970985;28;20379;-86
2022/11/06 02:43:50;;;;;;;16.95;9.23;;;;;;;5.92;88.09;98533.94;4969888;28;20039;-86
2022/11/06 02:46:27;;;;;;;20.48;10.25;;;;;;;5.91;88.77;98524.50;4971674;28;20104;-86
2022/11/06 02:49:06;;;;;;;17.48;9.32;;;;;;;5.93;88.18;98532.97;4968704;28;20039;-86
2022/11/06 02:51:39;;;;;;;18.00;9.07;;;;;;;5.84;87.09;98519.09;4965263;28;20089;-85
2022/11/06 02:54:07;;;;;;;16.30;9.15;;;;;;;5.78;87.98;98522.34;4970645;28;20113;-87
2022/11/06 02:56:40;;;;;;;15.20;9.55;;;;;;;5.81;89.42;98514.19;4971510;28;20053;-87
2022/11/06 02:59:36;;;;;;;17.20;9.30;;;;;;;5.77;88.81;98514.69;4970208;28;20121;-86
2022/11/06 03:02:09;;;;;;;19.45;9.63;;;;;;;5.74;88.09;98507.19;4967295;28;20046;-86
2022/11/06 03:05:01;;;;;;;16.38;8.43;;;;;;;5.73;87.42;98503.78;4968942;28;20066;-86
2022/11/06 03:07:37;;;;;;;13.75;8.55;;;;;;;5.71;86.47;98510.94;4987075;28;20038;-86
2022/11/06 03:10:06;;;;;;;15.35;9.18;;;;;;;5.62;87.13;98510.06;4989135;28;20066;-86
2022/11/06 03:12:55;;;;;;;15.57;8.48;;;;;;;5.50;86.35;98508.72;4965224;28;20039;-86
2022/11/06 03:15:35;;;;;;;14.85;8.27;;;;;;;5.55;86.91;98514.28;4960462;28;20031;-86
2022/11/06 03:18:25;;;;;;;15.00;8.27;;;;;;;5.45;86.86;98513.59;4964980;28;20479;-85
2022/11/06 03:21:11;;;;;;;14.20;8.23;;;;;;;5.34;86.82;98506.09;4975037;28;20038;-86
2022/11/06 03:23:49;;;;;;;15.48;8.27;;;;;;;5.33;86.58;98507.03;4972256;28;20074;-87
2022/11/06 03:26:21;;;;;;;15.73;8.45;;;;;;;5.25;88.38;98507.81;4975203;28;20034;-86
2022/11/06 03:29:11;;;;;;;15.55;8.73;;;;;;;5.25;86.50;98501.81;4974751;28;20035;-86
2022/11/06 03:31:48;;;;;;;14.95;8.32;;;;;;;5.29;86.89;98497.94;4965093;28;20122;-85
2022/11/06 03:34:28;;;;;;;14.80;8.48;;;;;;;5.21;87.83;98497.88;4975112;28;20086;-85
2022/11/06 03:37:12;;;;;;;13.70;8.00;;;;;;;5.16;87.17;98493.16;4989811;28;20580;-85
2022/11/06 03:39:47;;;;;;;13.63;8.18;;;;;;;5.19;86.20;98498.03;4974366;28;20065;-85
2022/11/06 03:42:28;;;;;;;15.48;8.70;;;;;;;5.14;86.11;98496.88;4973654;28;20023;-86
2022/11/06 03:45:01;;;;;;;13.98;8.30;;;;;;;5.06;85.76;98487.25;4974894;28;20042;-85
2022/11/06 03:47:56;;;;;;;14.38;7.95;;;;;;;4.98;86.20;98479.44;4972078;28;20122;-86
2022/11/06 03:50:59;;;;;;;13.52;7.60;;;;;;;5.02;86.35;98475.53;4968281;28;20483;-86
2022/11/06 03:53:35;;;;;;;16.92;8.30;;;;;;;4.97;86.70;98469.97;4972340;28;20109;-85
2022/11/06 03:56:12;;;;;;;14.95;7.35;;;;;;;5.01;86.62;98468.72;4973915;28;20035;-85
2022/11/06 03:58:44;;;;;;;13.98;7.90;;;;;;;4.93;87.27;98455.69;4974903;28;20084;-85
2022/11/06 04:01:13;;;;;;;11.57;7.25;;;;;;;4.93;87.99;98456.50;4973634;28;20046;-85
2022/11/06 04:03:58;;;;;;;12.75;7.88;;;;;;;5.04;88.11;98469.22;4974913;28;20110;-85
2022/11/06 04:06:44;;;;;;;13.85;7.50;;;;;;;4.98;87.77;98480.25;4974952;28;20044;-85
2022/11/06 04:14:53;;;;;;;16.35;7.88;;;;;;;4.93;88.40;98472.09;4974233;28;20041;-85
2022/11/06 04:17:25;;;;;;;14.73;8.40;;;;;;;5.08;88.81;98480.91;4973737;28;20050;-85
2022/11/06 04:19:59;;;;;;;22.77;7.93;;;;;;;5.04;87.82;98490.03;4974492;28;20038;-85
2022/11/06 04:22:45;;;;;;;17.63;7.45;;;;;;;5.15;89.01;98486.31;4974457;28;20046;-85
2022/11/06 04:28:50;;;;;;;12.15;7.57;;;;;;;5.29;88.28;98487.53;4971782;28;20031;-85
2022/11/06 04:31:28;;;;;;;18.65;7.72;;;;;;;5.35;87.76;98489.50;4966322;28;20042;-85
2022/11/06 04:34:27;;;;;;;13.07;7.15;;;;;;;5.35;87.39;98486.91;4973710;28;20035;-85
2022/11/06 04:37:05;;;;;;;12.88;7.30;;;;;;;5.25;86.39;98483.59;4967924;28;20536;-85
2022/11/06 04:39:45;;;;;;;14.50;7.13;;;;;;;5.26;86.71;98480.84;4974141;28;20039;-85
2022/11/06 04:42:31;;;;;;;22.55;7.88;;;;;;;5.24;86.97;98485.41;4955778;28;20042;-86
2022/11/06 04:45:09;;;;;;;15.02;7.82;;;;;;;5.28;87.51;98471.13;4973705;28;20503;-85
2022/11/06 04:47:37;;;;;;;15.82;7.90;;;;;;;5.28;87.36;98459.91;4971573;28;20042;-86
2022/11/06 04:50:10;;;;;;;12.23;7.18;;;;;;;5.42;87.06;98477.50;4973470;28;20398;-85
2022/11/06 04:52:39;;;;;;;19.13;7.35;;;;;;;5.43;86.84;98468.72;4969963;28;20046;-85
2022/11/06 04:55:05;;;;;;;12.75;7.82;;;;;;;5.34;87.29;98470.50;4973719;28;20047;-85
2022/11/06 04:57:31;;;;;;;13.23;7.30;;;;;;;5.24;87.46;98464.59;4973951;28;20466;-85
2022/11/06 04:59:57;;;;;;;17.40;7.22;;;;;;;5.19;87.68;98459.03;4973358;28;20043;-85
2022/11/06 05:02:22;;;;;;;22.77;8.88;;;;;;;5.18;87.88;98469.59;4973398;28;20034;-84
2022/11/06 05:04:48;;;;;;;16.42;7.13;;;;;;;5.14;88.24;98466.50;4973321;28;20485;-85
2022/11/06 05:07:14;;;;;;;18.75;7.80;;;;;;;5.16;89.02;98466.31;4973140;28;20070;-86
2022/11/06 05:09:41;;;;;;;13.82;7.15;;;;;;;5.13;88.94;98458.84;4972990;28;20046;-85
2022/11/06 05:12:07;;;;;;;31.60;8.07;;;;;;;5.07;89.60;98461.09;4973463;28;20027;-86
2022/11/06 05:14:33;;;;;;;41.63;8.30;;;;;;;5.00;89.96;98451.50;4973699;28;20039;-86
2022/11/06 05:16:59;;;;;;;31.90;8.75;;;;;;;4.98;90.19;98443.84;4972113;28;20502;-85
2022/11/06 05:19:24;;;;;;;19.70;7.45;;;;;;;4.96;90.60;98443.16;4973098;28;20201;-85
2022/11/06 05:24:47;;;;;;;24.17;7.18;;;;;;;4.90;90.70;98425.59;4952413;28;20507;-85
2022/11/06 05:27:13;;;;;;;30.52;7.20;;;;;;;4.93;90.82;98440.91;4973425;28;20037;-85
2022/11/06 05:29:38;;;;;;;23.10;7.70;;;;;;;4.90;91.32;98433.41;4972529;28;20697;-86
2022/11/06 05:32:04;;;;;;;24.65;7.88;;;;;;;5.02;91.91;98426.94;4973319;28;20035;-85
2022/11/06 05:34:30;;;;;;;22.73;7.57;;;;;;;5.10;90.57;98426.19;4987937;28;20042;-86
2022/11/06 05:36:56;;;;;;;25.70;7.60;;;;;;;5.04;90.38;98409.44;4972612;28;20041;-85
2022/11/06 05:39:21;;;;;;;21.23;7.85;;;;;;;5.00;90.56;98421.09;4972537;28;20069;-85
2022/11/06 05:41:47;;;;;;;39.40;8.00;;;;;;;4.99;90.59;98424.69;4972903;28;20446;-85
2022/11/06 05:44:12;;;;;;;17.77;8.30;;;;;;;5.05;90.50;98424.06;4972711;28;20035;-85
2022/11/06 05:46:38;;;;;;;27.70;8.23;;;;;;;5.07;90.34;98419.50;4972902;28;20455;-85
2022/11/06 05:49:03;;;;;;;20.20;7.60;;;;;;;4.96;90.80;98414.56;4965410;28;20363;-86
2022/11/06 05:51:29;;;;;;;26.67;7.72;;;;;;;4.97;90.95;98408.41;4972615;28;20038;-85
2022/11/06 05:53:54;;;;;;;25.30;7.70;;;;;;;5.06;91.17;98404.06;4972671;28;20055;-85
2022/11/06 05:56:20;;;;;;;19.77;7.35;;;;;;;5.13;91.12;98414.66;4972123;28;20411;-85
2022/11/06 05:58:45;;;;;;;15.20;7.35;;;;;;;5.07;90.51;98414.31;4972569;28;20066;-85
2022/11/06 06:01:12;;;;;;;13.30;7.95;;;;;;;5.16;90.85;98409.13;4966665;28;20046;-86
2022/11/06 06:03:37;;;;;;;20.23;8.65;;;;;;;5.18;91.17;98408.00;4969827;28;20043;-86
2022/11/06 06:06:03;;;;;;;18.45;7.78;;;;;;;5.19;90.63;98394.03;4972485;28;20046;-85
2022/11/06 06:08:28;;;;;;;12.95;7.07;;;;;;;5.21;90.31;98393.88;4972172;28;20387;-86
2022/11/06 06:10:54;;;;;;;16.23;8.27;;;;;;;5.23;90.31;98402.34;4972260;28;20038;-85
2022/11/06 06:13:19;;;;;;;14.52;8.10;;;;;;;5.26;91.08;98405.41;4986695;28;20037;-85
2022/11/06 06:15:45;;;;;;;15.27;7.88;;;;;;;5.19;90.46;98403.63;4972108;28;20402;-86
2022/11/06 06:18:11;;;;;;;14.07;7.53;;;;;;;5.27;90.82;98404.44;4972117;28;20035;-85
2022/11/06 06:20:37;;;;;;;15.77;8.13;;;;;;;5.18;90.77;98408.00;4970740;28;20041;-85
2022/11/06 06:23:02;;;;;;;15.38;7.80;;;;;;;5.32;90.88;98425.59;4971608;28;20027;-85
2022/11/06 06:25:29;;;;;;;15.75;8.60;;;;;;;5.33;90.25;98418.59;4972016;28;20035;-85
2022/11/06 06:27:55;;;;;;;13.07;8.25;;;;;;;5.25;89.73;98414.19;4972165;28;20042;-85
2022/11/06 06:30:22;;;;;;;13.98;7.88;;;;;;;5.40;89.59;98417.03;4971584;28;20093;-85
2022/11/06 06:32:49;;;;;;;17.50;8.90;;;;;;;5.32;88.37;98430.81;4972387;28;20060;-86
2022/11/06 06:35:16;;;;;;;17.13;7.95;;;;;;;5.25;88.52;98426.41;4971858;28;20080;-85
2022/11/06 06:37:49;;;;;;;16.73;8.18;;;;;;;5.28;88.62;98436.50;4972172;28;20061;-85
2022/11/06 06:40:14;;;;;;;15.68;8.30;;;;;;;5.38;88.97;98450.97;4971367;28;20031;-85
2022/11/06 06:42:40;;;;;;;14.13;6.97;;;;;;;5.37;88.74;98440.75;4971817;28;20045;-85
2022/11/06 06:45:05;;;;;;;14.40;8.07;;;;;;;5.38;88.32;98452.75;4971915;28;20115;-85
2022/11/06 06:47:31;;;;;;;13.68;8.13;;;;;;;5.33;88.95;98455.84;4968812;28;20039;-85
2022/11/06 06:49:56;;;;;;;43.67;7.35;;;;;;;5.24;86.79;98462.00;4971496;28;20031;-86
2022/11/06 06:52:22;;;;;;;19.70;6.88;;;;;;;5.12;85.69;98467.63;4971629;28;20053;-87
2022/11/06 06:54:47;;;;;;;40.17;7.28;;;;;;;4.98;84.87;98489.81;4969866;28;20118;-85
2022/11/06 06:57:13;;;;;;;11.23;6.22;;;;;;;4.81;85.02;98468.13;4971662;28;20098;-85
2022/11/06 06:59:38;;;;;;;20.33;6.30;;;;;;;4.91;85.27;98494.78;4971632;28;20041;-85
2022/11/06 07:02:04;;;;;;;47.47;7.47;;;;;;;4.90;85.37;98485.38;4970192;28;20163;-85
2022/11/06 07:04:29;;;;;;;11.27;6.93;;;;;;;5.05;86.17;98494.25;4970664;28;20035;-85
2022/11/06 07:06:55;;;;;;;16.33;6.45;;;;;;;5.16;86.29;98494.94;4985801;28;20515;-86
2022/11/06 07:09:22;;;;;;;12.65;6.28;;;;;;;5.30;85.99;98495.16;4971360;28;20039;-85
2022/11/06 07:11:48;;;;;;;11.00;6.25;;;;;;;5.34;85.40;98485.28;4971815;28;20035;-85
2022/11/06 07:14:14;;;;;;;16.52;6.45;;;;;;;5.36;84.45;98475.53;4971831;28;20050;-86
2022/11/06 07:16:39;;;;;;;12.70;5.43;;;;;;;5.24;84.54;98472.38;4971562;28;20054;-85
2022/11/06 07:19:05;;;;;;;10.75;6.03;;;;;;;5.21;85.07;98464.88;4971153;28;20410;-86
2022/11/06 07:21:30;;;;;;;14.82;7.20;;;;;;;5.32;85.73;98461.19;4987150;28;20034;-86
2022/11/06 07:23:56;;;;;;;10.73;6.70;;;;;;;5.40;85.92;98458.66;4971186;28;20045;-86
2022/11/06 07:26:21;;;;;;;12.88;7.80;;;;;;;5.52;86.19;98440.97;4970843;28;20037;-86
2022/11/06 07:28:47;;;;;;;22.73;7.68;;;;;;;5.63;85.73;98444.03;4971330;28;20082;-86
2022/11/06 07:31:12;;;;;;;15.65;7.13;;;;;;;5.59;85.93;98440.16;4971387;28;20490;-85
2022/11/06 07:33:38;;;;;;;25.02;7.43;;;;;;;5.67;85.66;98454.16;4969977;28;20066;-87
2022/11/06 07:36:12;;;;;;;18.25;7.32;;;;;;;5.59;86.08;98457.56;4987054;28;20035;-86
2022/11/06 07:38:41;;;;;;;24.00;7.00;;;;;;;5.36;86.28;98442.53;4971139;28;20496;-87
2022/11/06 07:41:11;;;;;;;20.20;7.05;;;;;;;5.51;86.33;98454.91;4971257;28;20031;-86
2022/11/06 07:43:38;;;;;;;16.40;7.03;;;;;;;5.47;86.23;98449.22;4971198;28;20030;-86
2022/11/06 07:46:08;;;;;;;12.55;6.30;;;;;;;5.54;86.47;98457.22;4971925;28;20522;-86
2022/11/06 07:48:34;;;;;;;9.77;5.65;;;;;;;5.48;85.74;98437.84;4984293;28;20110;-86
2022/11/06 07:51:05;;;;;;;11.60;5.63;;;;;;;5.53;85.72;98459.00;4971744;28;20042;-87
2022/11/06 07:53:32;;;;;;;10.38;5.80;;;;;;;5.43;86.06;98429.69;4973736;28;20379;-87
2022/11/06 07:56:00;;;;;;;7.88;5.32;;;;;;;5.57;84.89;98444.69;4974648;28;20566;-86
2022/11/06 07:58:26;;;;;;;7.90;4.82;;;;;;;5.49;83.73;98430.84;4975072;28;20092;-86
2022/11/06 08:00:55;;;;;;;7.65;4.50;;;;;;;5.25;83.47;98408.19;4973955;28;20039;-86
2022/11/06 08:03:24;;;;;;;10.90;4.53;;;;;;;5.19;84.13;98429.63;4974381;28;20487;-86
2022/11/06 08:05:50;;;;;;;9.85;5.35;;;;;;;5.27;84.24;98440.03;4973969;28;20066;-85
2022/11/06 08:08:16;;;;;;;8.00;4.80;;;;;;;5.35;84.61;98434.88;4972140;28;20081;-85
2022/11/06 08:10:42;;;;;;;10.38;5.03;;;;;;;5.52;85.18;98431.38;4973595;28;20039;-85
2022/11/06 08:13:10;;;;;;;9.70;5.15;;;;;;;5.55;84.57;98433.63;4973461;28;20034;-85
2022/11/06 08:15:37;;;;;;;8.18;5.05;;;;;;;5.53;84.79;98432.97;4973070;28;20049;-84
2022/11/06 08:18:04;;;;;;;9.43;5.05;;;;;;;5.31;84.54;98428.38;4972997;28;20085;-85
2022/11/06 08:20:30;;;;;;;9.90;5.18;;;;;;;5.08;86.10;98418.53;4973558;28;20042;-84
2022/11/06 08:23:01;;;;;;;13.00;5.20;;;;;;;4.96;86.51;98416.38;4971808;28;20031;-84
2022/11/06 08:25:28;;;;;;;12.43;6.95;;;;;;;5.02;87.19;98407.94;4972581;28;20043;-84
2022/11/06 08:27:59;;;;;;;13.32;6.05;;;;;;;5.18;87.44;98392.41;4973237;28;20458;-84
2022/11/06 08:30:27;;;;;;;12.55;5.88;;;;;;;5.30;88.19;98391.13;4973491;28;20082;-84
2022/11/06 08:32:53;;;;;;;14.35;6.45;;;;;;;5.45;88.70;98382.72;4972190;28;20443;-84
2022/11/06 08:35:19;;;;;;;12.45;8.02;;;;;;;5.58;87.76;98385.69;4972498;28;20046;-84
2022/11/06 08:37:44;;;;;;;13.32;6.47;;;;;;;5.77;87.80;98392.38;4973700;28;20045;-84
2022/11/06 08:40:11;;;;;;;9.82;5.53;;;;;;;5.82;87.03;98384.88;4973288;28;20047;-85
2022/11/06 08:42:36;;;;;;;12.13;5.95;;;;;;;5.94;87.23;98387.97;4973180;28;20069;-84
2022/11/06 08:45:02;;;;;;;13.75;6.30;;;;;;;5.97;86.47;98383.28;4973162;28;20121;-85
2022/11/06 08:47:28;;;;;;;12.38;6.55;;;;;;;5.99;85.84;98376.09;4970856;28;20058;-84
2022/11/06 08:49:56;;;;;;;13.45;6.35;;;;;;;6.06;86.43;98366.69;4968172;28;20034;-85
2022/11/06 08:52:21;;;;;;;14.93;7.57;;;;;;;6.14;86.05;98374.47;4971803;28;20057;-85
2022/11/06 08:54:49;;;;;;;13.70;6.85;;;;;;;6.23;86.10;98362.25;4973141;28;20031;-85
2022/11/06 08:57:14;;;;;;;12.02;6.65;;;;;;;6.32;86.18;98369.09;4971796;28;20026;-85
2022/11/06 08:59:40;;;;;;;13.45;7.45;;;;;;;6.47;86.69;98368.41;4972476;28;20047;-84
2022/11/06 09:02:05;;;;;;;12.82;7.25;;;;;;;6.43;85.82;98373.16;4973311;28;20407;-85
2022/11/06 09:04:31;;;;;;;13.68;7.38;;;;;;;6.57;85.99;98367.22;4971908;28;20065;-84
2022/11/06 09:06:57;;;;;;;12.02;7.55;;;;;;;6.71;86.11;98363.91;4972746;28;20137;-84
2022/11/06 09:09:30;;;;;;;12.93;7.57;;;;;;;6.76;85.45;98362.63;4972328;28;20658;-84
2022/11/06 09:11:58;;;;;;;13.77;8.10;;;;;;;6.82;85.13;98357.53;4971321;28;20073;-84
2022/11/06 09:14:23;;;;;;;14.88;8.13;;;;;;;6.86;85.83;98347.59;4973029;28;20042;-85
2022/11/06 09:16:49;;;;;;;13.32;7.50;;;;;;;6.90;84.65;98344.47;4972758;28;20501;-85
2022/11/06 09:19:15;;;;;;;17.20;8.30;;;;;;;6.97;85.92;98349.81;4972532;28;20031;-85
2022/11/06 09:21:40;;;;;;;14.50;7.88;;;;;;;6.97;85.72;98339.41;4970565;28;20084;-85
2022/11/06 09:24:06;;;;;;;16.88;8.32;;;;;;;7.07;85.83;98324.31;4972057;28;20066;-85
2022/11/06 09:26:31;;;;;;;14.73;7.90;;;;;;;7.18;85.33;98315.31;4971504;28;20178;-86
2022/11/06 09:28:57;;;;;;;17.13;8.18;;;;;;;7.16;86.14;98302.44;4972075;28;20042;-84
2022/11/06 09:31:22;;;;;;;14.75;8.18;;;;;;;7.15;84.98;98305.22;4966665;28;20043;-85
2022/11/06 09:33:48;;;;;;;13.15;7.80;;;;;;;7.15;84.91;98305.22;4972032;28;20079;-85
2022/11/06 09:36:13;;;;;;;13.95;8.52;;;;;;;7.10;85.39;98307.53;4972265;28;20039;-84
2022/11/06 09:38:39;;;;;;;16.38;8.05;;;;;;;7.16;85.45;98302.44;4971741;28;20078;-86
2022/11/06 09:41:05;;;;;;;16.02;8.95;;;;;;;7.31;85.45;98306.91;4987247;28;20054;-85
2022/11/06 09:44:20;;;;;;;12.00;6.95;;;;;;;7.26;84.03;98299.63;4971951;28;20042;-85
2022/11/06 09:46:47;;;;;;;13.05;7.93;;;;;;;7.38;84.11;98306.06;4970019;28;20465;-85
2022/11/06 09:49:40;;;;;;;13.43;8.02;;;;;;;7.45;83.87;98306.19;4971954;28;20046;-86
2022/11/06 09:52:34;;;;;;;15.27;8.95;;;;;;;7.51;84.39;98295.84;4972632;28;20487;-85
2022/11/06 09:55:23;;;;;;;13.43;7.55;;;;;;;7.72;84.07;98303.00;4971704;28;20096;-85
2022/11/06 09:57:56;;;;;;;13.95;8.43;;;;;;;7.78;84.06;98312.75;4970798;28;20041;-85
2022/11/06 10:00:22;;;;;;;13.57;8.23;;;;;;;7.89;83.51;98297.66;4986450;28;20497;-84
2022/11/06 10:03:04;;;;;;;14.43;8.20;;;;;;;8.05;82.57;98292.28;4971576;28;20142;-85
2022/11/06 10:05:35;;;;;;;14.32;8.90;;;;;;;8.14;81.42;98291.19;4965888;28;20043;-85
2022/11/06 10:08:04;;;;;;;12.35;8.27;;;;;;;8.12;81.50;98281.91;4985915;28;20066;-84
2022/11/06 10:10:44;;;;;;;14.52;8.40;;;;;;;8.19;82.43;98281.03;4971441;28;20038;-84
2022/11/06 10:13:47;;;;;;;11.70;8.17;;;;;;;8.24;81.61;98276.06;4971619;28;20034;-85
2022/11/06 10:16:21;;;;;;;11.15;6.60;;;;;;;8.19;80.78;98277.59;4967038;28;20034;-85
2022/11/06 10:19:03;;;;;;;10.85;7.68;;;;;;;8.23;80.85;98273.66;4970401;28;20035;-85
2022/11/06 10:21:38;;;;;;;11.45;7.72;;;;;;;8.39;81.17;98281.31;4960977;28;20035;-85
2022/11/06 10:24:28;;;;;;;12.07;8.27;;;;;;;8.51;81.42;98277.25;4971487;28;20034;-85
2022/11/06 10:26:56;;;;;;;12.75;8.63;;;;;;;8.63;81.03;98274.97;4965924;28;20026;-84
2022/11/06 10:29:57;;;;;;;14.70;7.88;;;;;;;8.46;79.92;98274.41;4971286;28;20101;-84
2022/11/06 10:33:00;;;;;;;13.45;8.18;;;;;;;8.31;80.16;98273.53;4971553;28;20085;-85
2022/11/06 10:35:42;;;;;;;13.40;8.52;;;;;;;8.43;81.09;98255.63;4982356;28;20053;-85
2022/11/06 10:38:20;;;;;;;12.80;7.95;;;;;;;8.47;81.42;98256.91;4970444;28;20049;-85
2022/11/06 10:40:48;;;;;;;12.65;8.18;;;;;;;8.49;80.65;98252.28;4968680;28;20382;-85
2022/11/06 10:43:39;;;;;;;11.35;7.13;;;;;;;8.45;80.55;98240.56;4970200;28;20069;-85
2022/11/06 10:46:07;;;;;;;13.43;8.57;;;;;;;8.55;81.54;98244.53;4961525;28;20037;-84
2022/11/06 10:48:42;;;;;;;14.18;8.35;;;;;;;8.60;82.13;98238.75;4968199;28;20042;-84
2022/11/06 10:51:42;;;;;;;11.65;8.40;;;;;;;8.47;80.29;98236.00;4969159;28;20062;-84
2022/11/06 10:54:41;;;;;;;16.40;7.93;;;;;;;8.41;80.57;98228.88;4967996;28;20035;-85
2022/11/06 10:57:25;;;;;;;13.27;8.18;;;;;;;8.51;79.87;98234.63;4970368;28;20035;-84
2022/11/06 10:59:51;;;;;;;14.43;9.38;;;;;;;8.31;80.37;98226.50;4968097;28;20057;-85
2022/11/06 11:02:29;;;;;;;13.52;8.98;;;;;;;8.33;81.17;98233.16;4969495;28;20043;-85
2022/11/06 11:04:55;;;;;;;12.43;8.98;;;;;;;8.41;81.47;98234.09;4970064;28;20074;-84
2022/11/06 11:07:21;;;;;;;11.93;8.45;;;;;;;8.18;80.68;98240.22;4968889;28;20042;-81
2022/11/06 11:09:49;;;;;;;14.82;9.23;;;;;;;8.12;79.82;98240.94;4967812;28;20851;-81
2022/11/06 11:12:29;;;;;;;15.20;10.05;;;;;;;8.08;80.66;98234.44;4967729;28;20031;-84
2022/11/06 11:15:24;;;;;;;12.88;9.25;;;;;;;8.25;80.54;98243.72;4969507;28;20038;-83
2022/11/06 11:18:11;;;;;;;13.82;9.57;;;;;;;8.54;80.34;98229.03;4964775;28;20092;-84
2022/11/06 11:20:46;;;;;;;16.80;9.38;;;;;;;8.78;79.96;98228.72;4966759;28;20037;-84
2022/11/06 11:23:14;;;;;;;16.00;10.10;;;;;;;8.95;78.18;98225.88;4969477;28;20076;-83
2022/11/06 11:25:44;;;;;;;20.15;10.77;;;;;;;9.00;77.70;98215.66;4970416;28;20121;-84
2022/11/06 11:28:35;;;;;;;16.93;9.50;;;;;;;9.04;78.13;98206.44;4973505;28;20038;-86
2022/11/06 11:31:08;;;;;;;17.05;10.02;;;;;;;8.96;76.91;98196.09;4971354;28;20511;-83
2022/11/06 11:33:37;;;;;;;16.23;9.90;;;;;;;8.79;76.67;98196.31;4971543;28;20081;-83
2022/11/06 11:36:06;;;;;;;14.90;9.93;;;;;;;8.73;77.21;98184.00;4972070;28;20054;-83
2022/11/06 11:38:38;;;;;;;14.68;9.93;;;;;;;8.81;77.09;98183.84;4972192;28;20105;-84
2022/11/06 11:41:24;;;;;;;16.17;9.98;;;;;;;8.83;78.83;98183.69;4972964;28;20042;-83
2022/11/06 11:44:13;;;;;;;16.73;9.10;;;;;;;8.88;76.49;98183.16;4971226;28;20575;-83
2022/11/06 11:46:50;;;;;;;12.88;8.32;;;;;;;8.91;76.92;98182.75;4971551;28;20635;-83
2022/11/06 11:49:33;;;;;;;16.80;9.57;;;;;;;8.87;77.23;98173.66;4985716;28;20034;-83
2022/11/06 11:52:02;;;;;;;14.60;9.52;;;;;;;8.77;78.11;98177.41;4972158;28;20035;-83
2022/11/06 11:54:34;;;;;;;14.75;9.90;;;;;;;8.78;77.51;98172.97;4971525;28;20344;-83
2022/11/06 11:57:05;;;;;;;18.77;11.68;;;;;;;8.54;76.43;98171.53;4972063;28;20125;-83
2022/11/06 11:59:46;;;;;;;17.60;10.88;;;;;;;8.63;78.37;98162.56;4972283;28;20166;-83
2022/11/06 12:02:33;;;;;;;15.57;9.38;;;;;;;8.70;77.71;98166.06;4972804;28;20070;-84
2022/11/06 12:05:11;;;;;;;14.48;9.40;;;;;;;8.76;77.45;98161.91;4972925;28;20043;-83
2022/11/06 12:07:42;;;;;;;15.95;9.68;;;;;;;8.77;77.37;98153.88;4969602;28;20034;-83
2022/11/06 12:10:28;;;;;;;;;;;;;;;8.81;77.50;98147.25;4973564;28;20034;-83
2022/11/06 12:12:56;;;;;;;13.70;8.98;;;;;;;8.89;77.39;98142.91;4973033;28;19913;-83